Time;durP1;ratioP1;P1;durP2;ratioP2;P2;SDS_P1;SDS_P2;PMS_P1;PMS_P2;Temp;Humidity;BMP_temperature;BMP_pressure;BME280_temperature;BME280_humidity;BME280_pressure;Samples;Min_cycle;Max_cycle;Signal;HPM_P1;HPM_P2
2022/09/28 00:00:31;;;;;;;;;;;10.50;99.90;;;;;;6109768;23;19905;-69
2022/09/28 00:02:57;;;;;;;;;;;10.50;99.90;;;;;;6125471;23;20367;-69
2022/09/28 00:05:25;;;;;;;;;;;10.50;99.90;;;;;;6108126;23;19905;-69
2022/09/28 00:07:55;;;;;;;;;;;10.50;99.90;;;;;;6109049;23;19908;-69
2022/09/28 00:10:21;;;;;;;;;;;10.50;99.90;;;;;;6102274;23;19909;-69
2022/09/28 00:12:48;;;;;;;;;;;10.40;99.90;;;;;;6108181;23;19983;-69
2022/09/28 00:15:13;;;;;;;;;;;10.50;99.90;;;;;;6106348;23;19952;-69
2022/09/28 00:17:39;;;;;;;;;;;10.40;99.90;;;;;;6112056;23;19913;-69
2022/09/28 00:20:05;;;;;;;;;;;10.40;99.90;;;;;;6106694;23;19912;-69
2022/09/28 00:22:30;;;;;;;;;;;10.40;99.90;;;;;;6108385;23;20615;-69
2022/09/28 00:24:56;;;;;;;;;;;10.40;99.90;;;;;;6101998;23;19960;-69
2022/09/28 00:27:22;;;;;;;;;;;10.40;99.90;;;;;;6112874;23;20003;-69
2022/09/28 00:29:48;;;;;;;;;;;10.30;99.90;;;;;;6101279;23;19916;-69
2022/09/28 00:32:14;;;;;;;;;;;10.40;99.90;;;;;;6135642;23;20396;-69
2022/09/28 00:34:42;;;;;;;;;;;10.40;99.90;;;;;;6102312;23;20000;-69
2022/09/28 00:37:08;;;;;;;;;;;10.40;99.90;;;;;;6108571;23;19905;-69
2022/09/28 00:39:34;;;;;;;;;;;10.40;99.90;;;;;;6113095;23;19911;-69
2022/09/28 00:42:01;;;;;;;;;;;10.40;99.90;;;;;;6130493;23;19916;-69
2022/09/28 00:44:27;;;;;;;;;;;10.50;99.90;;;;;;6102252;23;20465;-69
2022/09/28 00:47:12;;;;;;;;;;;10.40;99.90;;;;;;6107624;23;20543;-69
2022/09/28 00:49:50;;;;;;;;;;;10.40;99.90;;;;;;6107444;23;19912;-69
2022/09/28 00:52:28;;;;;;;;;;;10.40;99.90;;;;;;6105885;23;19905;-69
2022/09/28 00:54:56;;;;;;;;;;;10.40;99.90;;;;;;6110243;23;19951;-69
2022/09/28 00:57:22;;;;;;;;;;;10.40;99.90;;;;;;6110292;23;19912;-69
2022/09/28 00:59:48;;;;;;;;;;;10.30;99.90;;;;;;6112909;23;19905;-69
2022/09/28 01:02:14;;;;;;;;;;;10.30;99.90;;;;;;6131226;23;19905;-69
2022/09/28 01:04:39;;;;;;;;;;;10.30;99.90;;;;;;6127948;23;19905;-70
2022/09/28 01:07:07;;;;;;;;;;;10.30;99.90;;;;;;6109549;23;19971;-69
2022/09/28 01:09:35;;;;;;;;;;;10.30;99.90;;;;;;6111295;23;19908;-69
2022/09/28 01:12:01;;;;;;;;;;;10.20;99.90;;;;;;6107363;23;19904;-69
2022/09/28 01:14:26;;;;;;;;;;;10.30;99.90;;;;;;6107241;23;19992;-69
2022/09/28 01:17:01;;;;;;;;;;;10.20;99.90;;;;;;6108359;23;20589;-69
2022/09/28 01:19:32;;;;;;;;;;;10.20;99.90;;;;;;6107887;23;20299;-69
2022/09/28 01:22:17;;;;;;;;;;;10.20;99.90;;;;;;6107064;23;20679;-69
2022/09/28 01:24:56;;;;;;;;;;;10.20;99.90;;;;;;6107175;23;19904;-69
2022/09/28 01:27:31;;;;;;;;;;;10.30;99.90;;;;;;6106993;23;19905;-69
2022/09/28 01:30:04;;;;;;;;;;;10.20;99.90;;;;;;6107066;23;19909;-69
2022/09/28 01:32:42;;;;;;;;;;;10.20;99.90;;;;;;6107761;23;19908;-69
2022/09/28 01:35:10;;;;;;;;;;;10.20;99.90;;;;;;6108016;23;19939;-69
2022/09/28 01:37:45;;;;;;;;;;;10.20;99.90;;;;;;6111734;23;19980;-70
2022/09/28 01:40:11;;;;;;;;;;;10.20;99.90;;;;;;6130234;23;19975;-69
2022/09/28 01:42:38;;;;;;;;;;;10.10;99.90;;;;;;6107761;23;20310;-69
2022/09/28 01:45:06;;;;;;;;;;;10.00;99.90;;;;;;6112037;23;20296;-69
2022/09/28 01:47:33;;;;;;;;;;;10.00;99.90;;;;;;6108533;23;19905;-69
2022/09/28 01:50:02;;;;;;;;;;;10.10;99.90;;;;;;6106169;23;19915;-69
2022/09/28 01:52:30;;;;;;;;;;;10.00;99.90;;;;;;6106144;23;19952;-69
2022/09/28 01:54:59;;;;;;;;;;;10.00;99.90;;;;;;6106230;23;19923;-69
2022/09/28 01:57:43;;;;;;;;;;;10.00;99.90;;;;;;6130729;23;19901;-69
2022/09/28 02:00:11;;;;;;;;;;;10.00;99.90;;;;;;6111852;23;19908;-69
2022/09/28 02:02:38;;;;;;;;;;;10.00;99.90;;;;;;6107243;23;19932;-70
2022/09/28 02:05:10;;;;;;;;;;;10.00;99.90;;;;;;6111198;23;20304;-69
2022/09/28 02:07:41;;;;;;;;;;;9.90;99.90;;;;;;6106883;23;19901;-69
2022/09/28 02:10:11;;;;;;;;;;;9.90;99.90;;;;;;6102406;23;19916;-70
2022/09/28 02:12:42;;;;;;;;;;;9.90;99.90;;;;;;6107454;23;19905;-69
2022/09/28 02:15:11;;;;;;;;;;;9.90;99.90;;;;;;6107058;23;19911;-68
2022/09/28 02:17:37;;;;;;;;;;;9.80;99.90;;;;;;6106964;23;19987;-69
2022/09/28 02:20:03;;;;;;;;;;;9.90;99.90;;;;;;6105061;23;20383;-69
2022/09/28 02:22:32;;;;;;;;;;;9.80;99.90;;;;;;6107315;23;19901;-69
2022/09/28 02:25:02;;;;;;;;;;;9.80;99.90;;;;;;6109234;23;19905;-69
2022/09/28 02:27:33;;;;;;;;;;;9.80;99.90;;;;;;6108467;23;19905;-69
2022/09/28 02:29:59;;;;;;;;;;;9.90;99.90;;;;;;6108062;23;20295;-69
2022/09/28 02:32:27;;;;;;;;;;;9.90;99.90;;;;;;6108753;23;20036;-69
2022/09/28 02:34:54;;;;;;;;;;;10.00;99.90;;;;;;6108337;23;20094;-69
2022/09/28 02:37:19;;;;;;;;;;;10.00;99.90;;;;;;6109212;23;20547;-69
2022/09/28 02:39:45;;;;;;;;;;;10.00;99.90;;;;;;6103692;23;19912;-69
2022/09/28 02:42:13;;;;;;;;;;;10.10;99.90;;;;;;6109447;23;19945;-69
2022/09/28 02:44:56;;;;;;;;;;;10.20;99.90;;;;;;6113158;23;20397;-69
2022/09/28 02:47:28;;;;;;;;;;;10.30;99.90;;;;;;6103552;23;19945;-69
2022/09/28 02:49:58;;;;;;;;;;;10.40;99.90;;;;;;6108308;23;20295;-69
2022/09/28 02:52:41;;;;;;;;;;;10.40;99.90;;;;;;6103668;23;19975;-69
2022/09/28 02:55:19;;;;;;;;;;;10.40;99.90;;;;;;6107045;23;19936;-69
2022/09/28 02:57:44;;;;;;;;;;;10.40;99.90;;;;;;6109012;23;20695;-69
2022/09/28 03:00:18;;;;;;;;;;;10.50;99.90;;;;;;6111123;23;19905;-70
2022/09/28 03:02:46;;;;;;;;;;;10.50;99.90;;;;;;6113602;23;19996;-69
2022/09/28 03:05:18;;;;;;;;;;;10.50;99.90;;;;;;6107905;23;20215;-69
2022/09/28 03:07:49;;;;;;;;;;;10.50;99.90;;;;;;6130770;23;19905;-69
2022/09/28 03:10:24;;;;;;;;;;;10.50;99.90;;;;;;6107465;23;20192;-69
2022/09/28 03:12:50;;;;;;;;;;;10.40;99.90;;;;;;6108547;23;19905;-69
2022/09/28 03:15:18;;;;;;;;;;;10.40;99.90;;;;;;6113364;23;19983;-69
2022/09/28 03:17:44;;;;;;;;;;;10.30;99.90;;;;;;6108483;23;20276;-69
2022/09/28 03:20:10;;;;;;;;;;;10.20;99.90;;;;;;6112345;23;19936;-69
2022/09/28 03:22:36;;;;;;;;;;;10.20;99.90;;;;;;6126887;23;19905;-69
2022/09/28 03:25:02;;;;;;;;;;;10.20;99.90;;;;;;6107861;23;19960;-69
2022/09/28 03:27:27;;;;;;;;;;;10.10;99.90;;;;;;6108972;23;19939;-69
2022/09/28 03:29:53;;;;;;;;;;;10.10;99.90;;;;;;6106631;23;19979;-69
2022/09/28 03:32:18;;;;;;;;;;;10.10;99.90;;;;;;6102975;23;20339;-69
2022/09/28 03:34:44;;;;;;;;;;;10.30;99.90;;;;;;6117356;23;20568;-69
2022/09/28 03:37:09;;;;;;;;;;;10.30;99.90;;;;;;6114395;23;19905;-69
2022/09/28 03:39:36;;;;;;;;;;;10.30;99.90;;;;;;6136457;23;20389;-69
2022/09/28 03:42:01;;;;;;;;;;;10.40;99.90;;;;;;6130675;23;19919;-69
2022/09/28 03:44:27;;;;;;;;;;;10.40;99.90;;;;;;6113629;23;19976;-69
2022/09/28 03:46:52;;;;;;;;;;;10.40;99.90;;;;;;6103834;23;19905;-69
2022/09/28 03:49:18;;;;;;;;;;;10.40;99.90;;;;;;6108611;23;19909;-69
2022/09/28 03:51:43;;;;;;;;;;;10.50;99.90;;;;;;6131373;23;19905;-69
2022/09/28 03:54:09;;;;;;;;;;;10.50;99.90;;;;;;6108575;23;19908;-69
2022/09/28 03:56:34;;;;;;;;;;;10.60;99.90;;;;;;6108621;23;19905;-69
2022/09/28 03:59:01;;;;;;;;;;;10.60;99.90;;;;;;6108753;23;20181;-69
2022/09/28 04:01:28;;;;;;;;;;;10.70;99.90;;;;;;6108113;23;19901;-69
2022/09/28 04:03:54;;;;;;;;;;;10.70;99.90;;;;;;6105273;23;19900;-69
2022/09/28 04:06:20;;;;;;;;;;;10.70;99.90;;;;;;6107848;23;19906;-69
2022/09/28 04:08:46;;;;;;;;;;;10.80;99.90;;;;;;6107984;23;19916;-69
2022/09/28 04:11:12;;;;;;;;;;;10.70;99.90;;;;;;6108355;23;20188;-69
2022/09/28 04:13:39;;;;;;;;;;;10.70;99.90;;;;;;6108661;23;19905;-69
2022/09/28 04:16:16;;;;;;;;;;;10.80;99.90;;;;;;6109812;23;19904;-76
2022/09/28 04:18:42;;;;;;;;;;;10.70;99.90;;;;;;6109364;23;19909;-68
2022/09/28 04:21:11;;;;;;;;;;;10.60;99.90;;;;;;6114455;23;19901;-68
2022/09/28 04:23:38;;;;;;;;;;;10.60;99.90;;;;;;6130997;23;19936;-69
2022/09/28 04:26:04;;;;;;;;;;;10.50;99.90;;;;;;6108264;23;19928;-69
2022/09/28 04:31:16;;;;;;;;;;;10.40;99.90;;;;;;6107441;23;20011;-68
2022/09/28 04:33:42;;;;;;;;;;;10.30;99.90;;;;;;6108294;23;19909;-68
2022/09/28 04:36:09;;;;;;;;;;;10.30;99.90;;;;;;6107613;23;19911;-68
2022/09/28 04:38:35;;;;;;;;;;;10.30;99.90;;;;;;6107581;23;19905;-68
2022/09/28 04:41:01;;;;;;;;;;;10.30;99.90;;;;;;6106767;23;19913;-68
2022/09/28 04:43:27;;;;;;;;;;;10.30;99.90;;;;;;6106035;23;19943;-68
2022/09/28 04:45:56;;;;;;;;;;;10.30;99.90;;;;;;6108544;23;19905;-68
2022/09/28 04:48:22;;;;;;;;;;;10.30;99.90;;;;;;6108590;23;19975;-68
2022/09/28 04:50:54;;;;;;;;;;;10.40;99.90;;;;;;6107305;23;19956;-69
2022/09/28 04:53:21;;;;;;;;;;;10.50;99.90;;;;;;6107702;23;19904;-68
2022/09/28 04:55:56;;;;;;;;;;;10.60;99.90;;;;;;6108159;23;19979;-68
2022/09/28 04:58:22;;;;;;;;;;;10.60;99.90;;;;;;6105832;23;19909;-68
2022/09/28 05:00:50;;;;;;;;;;;10.70;99.90;;;;;;6106127;23;20041;-68
2022/09/28 05:03:16;;;;;;;;;;;10.70;99.90;;;;;;6108054;23;20724;-68
2022/09/28 05:05:45;;;;;;;;;;;10.70;99.90;;;;;;6132444;23;19905;-68
2022/09/28 05:08:11;;;;;;;;;;;10.80;99.90;;;;;;6107306;23;19905;-68
2022/09/28 05:10:39;;;;;;;;;;;11.10;99.90;;;;;;6105794;23;20058;-66
2022/09/28 05:13:05;;;;;;;;;;;11.60;99.90;;;;;;6106321;23;20334;-68
2022/09/28 05:15:32;;;;;;;;;;;12.20;99.90;;;;;;6108002;23;19932;-68
2022/09/28 05:17:58;;;;;;;;;;;12.30;99.90;;;;;;6106782;23;19912;-69
2022/09/28 05:20:23;;;;;;;;;;;12.20;99.90;;;;;;6105898;23;19905;-68
2022/09/28 05:22:49;;;;;;;;;;;12.00;99.90;;;;;;6108610;23;20275;-68
2022/09/28 05:25:14;;;;;;;;;;;11.60;99.90;;;;;;6112180;23;19927;-68
2022/09/28 05:27:40;;;;;;;;;;;11.40;99.90;;;;;;6107241;23;19963;-68
2022/09/28 05:30:06;;;;;;;;;;;11.30;99.90;;;;;;6106411;23;20538;-68
2022/09/28 05:32:31;;;;;;;;;;;11.20;99.90;;;;;;6107973;23;20306;-68
2022/09/28 05:34:59;;;;;;;;;;;11.20;99.90;;;;;;6108722;23;19904;-69
2022/09/28 05:37:25;;;;;;;;;;;11.20;99.90;;;;;;6112466;23;19909;-68
2022/09/28 05:39:51;;;;;;;;;;;11.40;99.90;;;;;;6109955;23;19950;-68
2022/09/28 05:42:16;;;;;;;;;;;11.90;99.90;;;;;;6126258;23;20594;-68
2022/09/28 05:44:42;;;;;;;;;;;12.80;99.90;;;;;;6106966;23;20462;-68
2022/09/28 05:47:07;;;;;;;;;;;13.80;99.90;;;;;;6111393;23;20074;-69
2022/09/28 05:49:33;;;;;;;;;;;14.60;99.90;;;;;;6105601;23;20369;-69
2022/09/28 05:51:58;;;;;;;;;;;15.20;99.90;;;;;;6105514;23;20342;-68
2022/09/28 05:54:24;;;;;;;;;;;15.60;99.90;;;;;;6110722;23;20245;-69
2022/09/28 05:56:49;;;;;;;;;;;16.00;99.40;;;;;;6107029;23;20249;-69
2022/09/28 05:59:15;;;;;;;;;;;16.10;98.70;;;;;;6107666;23;19904;-69
2022/09/28 06:01:41;;;;;;;;;;;16.10;99.30;;;;;;6100851;23;20206;-69
2022/09/28 06:04:07;;;;;;;;;;;16.00;98.90;;;;;;6106075;23;19904;-69
2022/09/28 06:06:34;;;;;;;;;;;16.40;98.20;;;;;;6104648;23;19905;-69
2022/09/28 06:08:59;;;;;;;;;;;17.50;97.10;;;;;;6104744;23;20606;-69
2022/09/28 06:11:26;;;;;;;;;;;18.50;94.70;;;;;;6106172;23;20345;-69
2022/09/28 06:13:53;;;;;;;;;;;19.10;93.00;;;;;;6111151;23;20471;-69
2022/09/28 06:16:19;;;;;;;;;;;19.20;92.00;;;;;;6101844;23;19933;-69
2022/09/28 06:18:44;;;;;;;;;;;19.60;90.40;;;;;;6107025;23;19905;-69
2022/09/28 06:21:11;;;;;;;;;;;19.90;88.30;;;;;;6110967;23;20023;-69
2022/09/28 06:23:37;;;;;;;;;;;20.20;85.40;;;;;;6106278;23;19904;-69
2022/09/28 06:26:03;;;;;;;;;;;19.60;86.40;;;;;;6106050;23;19908;-69
2022/09/28 06:28:28;;;;;;;;;;;19.70;85.80;;;;;;6110762;23;19944;-69
2022/09/28 06:30:54;;;;;;;;;;;19.60;85.10;;;;;;6106321;23;19987;-69
2022/09/28 06:33:20;;;;;;;;;;;19.70;83.90;;;;;;6105943;23;19904;-69
2022/09/28 06:35:46;;;;;;;;;;;20.10;82.40;;;;;;6106197;23;20141;-69
2022/09/28 06:38:12;;;;;;;;;;;20.70;80.90;;;;;;6110817;23;20572;-70
2022/09/28 06:40:38;;;;;;;;;;;20.20;81.60;;;;;;6106311;23;19909;-69
2022/09/28 06:43:09;;;;;;;;;;;20.50;77.30;;;;;;6107282;23;20019;-69
2022/09/28 06:45:35;;;;;;;;;;;20.70;76.20;;;;;;6105711;23;19952;-69
2022/09/28 06:48:02;;;;;;;;;;;20.60;77.10;;;;;;6108465;23;19935;-70
2022/09/28 06:50:31;;;;;;;;;;;21.20;76.20;;;;;;6110219;23;19932;-69
2022/09/28 06:52:57;;;;;;;;;;;21.20;74.70;;;;;;6104996;23;19905;-69
2022/09/28 06:55:22;;;;;;;;;;;21.30;74.00;;;;;;6110629;23;19908;-69
2022/09/28 06:57:58;;;;;;;;;;;21.60;71.90;;;;;;6106205;23;19912;-69
2022/09/28 07:00:24;;;;;;;;;;;21.90;71.20;;;;;;6104988;23;19905;-69
2022/09/28 07:02:51;;;;;;;;;;;22.20;70.50;;;;;;6135884;23;19908;-69
2022/09/28 07:05:18;;;;;;;;;;;22.50;68.10;;;;;;6107283;23;19904;-69
2022/09/28 07:07:43;;;;;;;;;;;22.50;68.10;;;;;;6104777;23;19911;-70
2022/09/28 07:10:10;;;;;;;;;;;22.20;68.30;;;;;;6108922;23;19912;-69
2022/09/28 07:12:36;;;;;;;;;;;22.10;68.20;;;;;;6108022;23;19915;-69
2022/09/28 07:15:02;;;;;;;;;;;22.00;67.90;;;;;;6107522;23;19904;-70
2022/09/28 07:17:28;;;;;;;;;;;21.70;68.20;;;;;;6108946;23;19909;-68
2022/09/28 07:19:56;;;;;;;;;;;21.50;69.00;;;;;;6108379;23;19947;-68
2022/09/28 07:22:22;;;;;;;;;;;20.90;71.20;;;;;;6112491;23;19927;-69
2022/09/28 07:24:48;;;;;;;;;;;20.80;71.40;;;;;;6103299;23;19901;-68
2022/09/28 07:27:14;;;;;;;;;;;21.00;71.60;;;;;;6113352;23;19983;-69
2022/09/28 07:29:39;;;;;;;;;;;20.90;70.20;;;;;;6104449;23;19912;-68
2022/09/28 07:32:05;;;;;;;;;;;20.80;71.10;;;;;;6107843;23;19932;-69
2022/09/28 07:34:31;;;;;;;;;;;20.60;72.30;;;;;;6133140;23;20304;-69
2022/09/28 07:36:57;;;;;;;;;;;20.60;72.20;;;;;;6107655;23;19908;-69
2022/09/28 07:39:23;;;;;;;;;;;20.60;72.80;;;;;;6111891;23;19905;-69
2022/09/28 07:41:49;;;;;;;;;;;20.80;73.10;;;;;;6103906;23;19920;-69
2022/09/28 07:44:15;;;;;;;;;;;21.10;72.40;;;;;;6107603;23;19979;-68
2022/09/28 07:46:42;;;;;;;;;;;21.50;70.50;;;;;;6107672;23;19979;-69
2022/09/28 07:49:07;;;;;;;;;;;21.20;72.00;;;;;;6108359;23;19905;-69
2022/09/28 07:51:33;;;;;;;;;;;21.20;72.30;;;;;;6106113;23;19905;-69
2022/09/28 07:53:59;;;;;;;;;;;21.80;71.20;;;;;;6130377;23;19913;-68
2022/09/28 07:56:24;;;;;;;;;;;21.50;72.00;;;;;;6109642;23;19908;-69
2022/09/28 07:58:50;;;;;;;;;;;21.00;73.10;;;;;;6107279;23;20804;-68
2022/09/28 08:01:16;;;;;;;;;;;20.70;74.10;;;;;;6107233;23;19912;-68
2022/09/28 08:03:46;;;;;;;;;;;20.60;74.80;;;;;;6109286;23;20020;-62
2022/09/28 08:06:13;;;;;;;;;;;21.00;75.50;;;;;;6111726;23;19964;-62
2022/09/28 08:08:42;;;;;;;;;;;21.30;74.60;;;;;;6106840;23;20392;-62
2022/09/28 08:11:09;;;;;;;;;;;21.00;74.20;;;;;;6132092;23;20274;-62
2022/09/28 08:13:35;;;;;;;;;;;19.70;77.50;;;;;;6104211;23;19905;-62
2022/09/28 08:16:01;;;;;;;;;;;19.70;79.50;;;;;;6112493;23;19904;-62
2022/09/28 08:18:26;;;;;;;;;;;19.90;78.90;;;;;;6107133;23;19905;-62
2022/09/28 08:23:37;;;;;;;;;;;18.70;82.40;;;;;;6112171;23;19911;-62
2022/09/28 08:26:02;;;;;;;;;;;17.90;85.70;;;;;;6106821;23;19905;-62
2022/09/28 08:28:28;;;;;;;;;;;17.70;87.50;;;;;;6107234;23;19905;-62
2022/09/28 08:30:54;;;;;;;;;;;17.60;88.00;;;;;;6106811;23;19909;-62
2022/09/28 08:33:22;;;;;;;;;;;17.90;88.80;;;;;;6108308;23;19908;-65
2022/09/28 08:35:54;;;;;;;;;;;18.00;89.30;;;;;;6105357;23;19939;-68
2022/09/28 08:38:20;;;;;;;;;;;18.10;88.90;;;;;;6104700;23;19916;-70
2022/09/28 08:41:02;;;;;;;;;;;19.40;88.50;;;;;;6113707;23;19905;-71
2022/09/28 08:43:48;;;;;;;;;;;19.80;85.50;;;;;;6134592;23;19904;-71
2022/09/28 08:46:16;;;;;;;;;;;20.00;85.10;;;;;;6108261;23;19908;-70
2022/09/28 08:48:52;;;;;;;;;;;20.20;85.30;;;;;;6126387;23;20011;-71
2022/09/28 08:51:25;;;;;;;;;;;20.90;83.60;;;;;;6109408;23;20462;-71
2022/09/28 08:53:57;;;;;;;;;;;21.70;82.30;;;;;;6112451;23;20124;-70
2022/09/28 08:56:42;;;;;;;;;;;22.40;80.40;;;;;;6131182;23;19905;-70
2022/09/28 08:59:11;;;;;;;;;;;21.50;81.70;;;;;;6108951;23;20231;-71
2022/09/28 09:01:39;;;;;;;;;;;21.50;82.10;;;;;;6107175;23;19905;-71
2022/09/28 09:04:05;;;;;;;;;;;22.90;78.70;;;;;;6103219;23;19901;-71
2022/09/28 09:06:40;;;;;;;;;;;22.50;77.90;;;;;;6113267;23;19911;-71
2022/09/28 09:09:20;;;;;;;;;;;21.30;80.60;;;;;;6108382;23;20299;-71
2022/09/28 09:11:59;;;;;;;;;;;20.30;83.60;;;;;;6107118;23;20208;-70
2022/09/28 09:15:03;;;;;;;;;;;20.60;84.20;;;;;;6107690;23;19904;-70
2022/09/28 09:17:48;;;;;;;;;;;21.20;82.70;;;;;;6048699;23;19901;-70
2022/09/28 09:20:32;;;;;;;;;;;21.00;82.40;;;;;;6045231;23;19905;-70
2022/09/28 09:23:03;;;;;;;;;;;21.30;82.30;;;;;;6091097;23;19959;-71
2022/09/28 09:25:28;;;;;;;;;;;21.10;83.10;;;;;;6135596;23;19924;-71
2022/09/28 09:27:58;;;;;;;;;;;21.40;82.70;;;;;;6108254;23;19927;-71
2022/09/28 09:30:25;;;;;;;;;;;21.30;82.80;;;;;;6107774;23;20307;-71
2022/09/28 09:32:54;;;;;;;;;;;21.80;81.40;;;;;;6106051;23;20056;-71
2022/09/28 09:35:40;;;;;;;;;;;21.60;81.40;;;;;;6107416;23;19904;-71
2022/09/28 09:38:08;;;;;;;;;;;21.30;81.70;;;;;;6096950;23;20679;-70
2022/09/28 09:40:52;;;;;;;;;;;20.60;83.20;;;;;;6130401;23;20548;-71
2022/09/28 09:43:27;;;;;;;;;;;20.90;82.60;;;;;;6132763;23;19901;-71
2022/09/28 09:46:04;;;;;;;;;;;22.50;79.50;;;;;;6131449;23;20311;-71
2022/09/28 09:48:45;;;;;;;;;;;23.60;76.90;;;;;;6107249;23;20327;-62
2022/09/28 09:51:30;;;;;;;;;;;22.90;77.80;;;;;;6105437;23;19909;-62
2022/09/28 09:54:05;;;;;;;;;;;23.30;77.40;;;;;;6107601;23;19908;-62
2022/09/28 09:56:43;;;;;;;;;;;23.70;75.80;;;;;;6111164;23;19904;-62
2022/09/28 09:59:17;;;;;;;;;;;23.50;75.20;;;;;;6106486;23;20086;-61
2022/09/28 10:01:43;;;;;;;;;;;23.50;76.90;;;;;;6106204;23;19905;-62
2022/09/28 10:04:24;;;;;;;;;;;23.70;75.00;;;;;;6107395;23;20045;-61
2022/09/28 10:06:54;;;;;;;;;;;24.10;74.30;;;;;;6110240;23;19905;-62
2022/09/28 10:09:25;;;;;;;;;;;25.30;73.20;;;;;;6102612;23;19976;-62
2022/09/28 10:11:50;;;;;;;;;;;27.20;69.00;;;;;;6105934;23;19937;-61
2022/09/28 10:14:21;;;;;;;;;;;27.10;67.70;;;;;;6106134;23;19901;-62
2022/09/28 10:16:47;;;;;;;;;;;26.50;68.30;;;;;;6111585;23;19905;-62
2022/09/28 10:19:13;;;;;;;;;;;26.50;68.40;;;;;;6106103;23;19928;-62
2022/09/28 10:21:40;;;;;;;;;;;26.70;67.30;;;;;;6105668;23;20307;-62
2022/09/28 10:24:32;;;;;;;;;;;25.60;69.00;;;;;;6106849;23;19912;-62
2022/09/28 10:27:03;;;;;;;;;;;24.70;70.80;;;;;;6082370;23;19901;-71
2022/09/28 10:29:33;;;;;;;;;;;23.30;72.80;;;;;;6108621;23;20489;-71
2022/09/28 10:32:00;;;;;;;;;;;22.70;75.00;;;;;;6112359;23;19915;-71
2022/09/28 10:34:27;;;;;;;;;;;21.30;76.70;;;;;;6131783;23;19905;-71
2022/09/28 10:36:58;;;;;;;;;;;21.00;78.20;;;;;;6109163;23;19976;-71
2022/09/28 10:39:35;;;;;;;;;;;20.40;80.00;;;;;;6109345;23;19905;-72
2022/09/28 10:42:04;;;;;;;;;;;20.00;80.40;;;;;;6107404;23;19913;-70
2022/09/28 10:44:34;;;;;;;;;;;20.00;82.10;;;;;;6108661;23;19908;-69
2022/09/28 10:47:06;;;;;;;;;;;20.10;83.10;;;;;;6129581;23;19931;-72
2022/09/28 10:49:40;;;;;;;;;;;20.00;83.50;;;;;;6107510;23;19920;-66
2022/09/28 10:52:25;;;;;;;;;;;19.90;83.20;;;;;;6113243;23;19901;-66
2022/09/28 10:54:52;;;;;;;;;;;20.00;83.20;;;;;;6108755;23;20286;-66
2022/09/28 10:57:26;;;;;;;;;;;19.50;83.30;;;;;;6110237;23;19908;-75
2022/09/28 10:59:53;;;;;;;;;;;19.50;83.60;;;;;;6108495;23;19916;-72
2022/09/28 11:02:22;;;;;;;;;;;20.00;83.10;;;;;;6112542;23;19905;-73
2022/09/28 11:04:52;;;;;;;;;;;21.10;80.80;;;;;;6109868;23;19901;-73
2022/09/28 11:07:22;;;;;;;;;;;21.50;77.80;;;;;;6109903;23;19908;-74
2022/09/28 11:09:53;;;;;;;;;;;20.90;79.20;;;;;;6110902;23;19909;-73
2022/09/28 11:12:23;;;;;;;;;;;20.80;80.50;;;;;;6111943;23;19908;-74
2022/09/28 11:14:54;;;;;;;;;;;21.40;79.70;;;;;;6116989;23;19905;-73
2022/09/28 11:17:26;;;;;;;;;;;21.40;77.90;;;;;;6102571;23;19991;-74
2022/09/28 11:19:53;;;;;;;;;;;21.30;76.40;;;;;;6138901;23;19928;-74
2022/09/28 11:22:21;;;;;;;;;;;21.00;78.10;;;;;;6119797;23;19932;-76
2022/09/28 11:24:49;;;;;;;;;;;20.80;78.20;;;;;;6136209;23;19984;-75
2022/09/28 11:27:27;;;;;;;;;;;20.50;79.60;;;;;;6105033;23;19908;-77
2022/09/28 11:29:56;;;;;;;;;;;20.10;79.50;;;;;;6109360;23;19904;-75
2022/09/28 11:32:29;;;;;;;;;;;19.90;80.90;;;;;;6117058;23;19908;-76
2022/09/28 11:34:56;;;;;;;;;;;19.80;80.40;;;;;;6105015;23;19909;-76
2022/09/28 11:37:42;;;;;;;;;;;19.70;80.40;;;;;;6115594;23;19912;-76
2022/09/28 11:40:14;;;;;;;;;;;19.60;82.10;;;;;;6116419;23;19911;-74
2022/09/28 11:42:39;;;;;;;;;;;19.60;82.50;;;;;;6134667;23;19920;-71
2022/09/28 11:45:11;;;;;;;;;;;19.60;82.80;;;;;;6115534;23;19901;-71
2022/09/28 11:47:54;;;;;;;;;;;19.20;84.30;;;;;;6111793;23;20766;-71
2022/09/28 11:50:47;;;;;;;;;;;19.10;84.40;;;;;;6113520;23;19972;-71
2022/09/28 11:53:13;;;;;;;;;;;18.80;84.40;;;;;;6111575;23;19924;-70
2022/09/28 11:55:57;;;;;;;;;;;18.80;86.10;;;;;;6133573;23;20560;-70
2022/09/28 11:58:30;;;;;;;;;;;19.00;85.90;;;;;;6109724;23;19939;-71
2022/09/28 12:01:02;;;;;;;;;;;18.90;85.40;;;;;;6114353;23;19952;-71
2022/09/28 12:03:40;;;;;;;;;;;19.00;85.80;;;;;;6108953;23;19901;-71
2022/09/28 12:06:08;;;;;;;;;;;19.30;84.90;;;;;;6109096;23;19967;-71
2022/09/28 12:08:39;;;;;;;;;;;19.50;84.90;;;;;;6110743;23;19908;-70
2022/09/28 12:11:11;;;;;;;;;;;19.60;84.60;;;;;;6109086;23;19999;-71
2022/09/28 12:13:40;;;;;;;;;;;19.90;84.50;;;;;;6112171;23;19904;-71
2022/09/28 12:16:07;;;;;;;;;;;20.30;83.70;;;;;;6110169;23;19981;-69
2022/09/28 12:18:48;;;;;;;;;;;20.30;83.10;;;;;;6132070;23;19976;-70
2022/09/28 12:21:23;;;;;;;;;;;20.00;84.30;;;;;;6111933;23;19940;-71
2022/09/28 12:23:49;;;;;;;;;;;20.10;83.80;;;;;;6138805;23;20294;-71
2022/09/28 12:26:28;;;;;;;;;;;20.30;83.60;;;;;;6110015;23;19967;-71
2022/09/28 12:28:56;;;;;;;;;;;20.30;83.40;;;;;;6133188;23;19905;-70
2022/09/28 12:31:21;;;;;;;;;;;20.20;84.00;;;;;;6109493;23;19901;-71
2022/09/28 12:33:50;;;;;;;;;;;19.80;85.00;;;;;;6132737;23;19908;-71
2022/09/28 12:36:25;;;;;;;;;;;19.20;85.40;;;;;;6109452;23;20389;-71
2022/09/28 12:39:10;;;;;;;;;;;19.00;86.40;;;;;;6109055;23;19979;-72
2022/09/28 12:41:38;;;;;;;;;;;19.00;86.80;;;;;;6138571;23;19913;-72
2022/09/28 12:44:19;;;;;;;;;;;18.90;87.90;;;;;;6110902;23;19901;-71
2022/09/28 12:46:52;;;;;;;;;;;19.10;87.40;;;;;;6115205;23;19901;-72
2022/09/28 12:49:36;;;;;;;;;;;19.20;87.20;;;;;;6109265;23;19908;-62
2022/09/28 12:52:20;;;;;;;;;;;19.20;86.80;;;;;;6106915;23;19928;-65
2022/09/28 12:55:05;;;;;;;;;;;19.20;87.20;;;;;;6133682;23;19905;-69
2022/09/28 12:57:34;;;;;;;;;;;19.50;86.40;;;;;;6105655;23;20691;-69
2022/09/28 13:00:21;;;;;;;;;;;19.60;86.20;;;;;;6106082;23;19968;-69
2022/09/28 13:03:09;;;;;;;;;;;19.60;85.90;;;;;;6102565;23;19911;-69
2022/09/28 13:06:07;;;;;;;;;;;19.70;85.80;;;;;;6106742;23;20133;-69
2022/09/28 13:08:48;;;;;;;;;;;19.60;85.20;;;;;;6051929;23;19907;-69
2022/09/28 13:11:27;;;;;;;;;;;19.60;85.20;;;;;;6108961;23;20255;-69
2022/09/28 13:14:00;;;;;;;;;;;19.60;86.20;;;;;;6106754;23;19952;-69
2022/09/28 13:16:32;;;;;;;;;;;19.60;85.60;;;;;;6129913;23;19905;-69
2022/09/28 13:18:58;;;;;;;;;;;19.50;86.30;;;;;;6107934;23;19905;-69
2022/09/28 13:21:27;;;;;;;;;;;19.30;87.10;;;;;;6107231;23;19901;-69
2022/09/28 13:23:54;;;;;;;;;;;19.20;88.50;;;;;;6107427;23;19955;-69
2022/09/28 13:26:21;;;;;;;;;;;19.40;87.50;;;;;;6106748;23;19901;-69
2022/09/28 13:28:49;;;;;;;;;;;19.70;87.50;;;;;;6111839;23;20028;-69
2022/09/28 13:31:18;;;;;;;;;;;19.70;85.80;;;;;;6105937;23;20486;-69
2022/09/28 13:33:44;;;;;;;;;;;19.70;84.90;;;;;;6112112;23;19904;-69
2022/09/28 13:36:42;;;;;;;;;;;19.70;85.40;;;;;;6131067;23;19980;-69
2022/09/28 13:39:35;;;;;;;;;;;19.50;85.20;;;;;;6058708;23;19904;-69
2022/09/28 13:42:01;;;;;;;;;;;19.50;85.90;;;;;;6103903;23;19916;-69
2022/09/28 13:44:33;;;;;;;;;;;19.70;84.80;;;;;;6106936;23;19905;-70
2022/09/28 13:47:05;;;;;;;;;;;19.70;84.40;;;;;;6130015;23;20295;-70
2022/09/28 13:49:34;;;;;;;;;;;19.70;86.30;;;;;;6106893;23;19931;-70
2022/09/28 13:52:11;;;;;;;;;;;19.60;86.00;;;;;;6129610;23;20869;-69
2022/09/28 13:54:59;;;;;;;;;;;19.60;86.60;;;;;;6106231;23;19905;-69
2022/09/28 13:57:30;;;;;;;;;;;19.70;84.80;;;;;;6102852;23;19905;-69
2022/09/28 13:59:55;;;;;;;;;;;19.90;84.80;;;;;;6106307;23;19960;-69
2022/09/28 14:02:21;;;;;;;;;;;20.20;83.40;;;;;;6106231;23;19904;-70
2022/09/28 14:05:00;;;;;;;;;;;20.30;82.00;;;;;;6111364;23;20358;-70
2022/09/28 14:07:35;;;;;;;;;;;20.20;82.00;;;;;;6106779;23;19935;-70
2022/09/28 14:10:19;;;;;;;;;;;19.60;82.40;;;;;;6108183;23;20616;-69
2022/09/28 14:12:50;;;;;;;;;;;19.50;83.10;;;;;;6106495;23;19963;-69
2022/09/28 14:15:27;;;;;;;;;;;19.60;83.20;;;;;;6107065;23;20534;-69
2022/09/28 14:17:57;;;;;;;;;;;19.90;81.50;;;;;;6103056;23;20343;-69
2022/09/28 14:20:24;;;;;;;;;;;20.10;80.10;;;;;;6109014;23;19912;-69
2022/09/28 14:22:54;;;;;;;;;;;19.70;81.30;;;;;;6110251;23;19931;-69
2022/09/28 14:25:24;;;;;;;;;;;19.50;82.10;;;;;;6109212;23;20323;-62
2022/09/28 14:28:11;;;;;;;;;;;19.70;86.60;;;;;;6108322;23;19935;-67
2022/09/28 14:30:37;;;;;;;;;;;19.50;83.10;;;;;;6104006;23;19915;-70
2022/09/28 14:33:14;;;;;;;;;;;19.40;82.00;;;;;;6132285;23;19936;-70
2022/09/28 14:35:40;;;;;;;;;;;19.00;81.90;;;;;;6132971;23;20511;-70
2022/09/28 14:41:12;;;;;;;;;;;19.10;84.40;;;;;;6108803;23;19978;-71
2022/09/28 14:43:44;;;;;;;;;;;19.30;83.90;;;;;;6111926;23;20291;-71